createdAt,value
2022-12-24T00:01:21.658Z,9.55
2022-12-24T00:06:20.718Z,8.00
2022-12-24T00:11:17.652Z,7.97
2022-12-24T00:16:14.259Z,12.00
2022-12-24T00:21:10.700Z,11.63
2022-12-24T00:26:07.104Z,5.97
2022-12-24T00:31:15.761Z,9.10
2022-12-24T00:36:12.525Z,8.93
2022-12-24T00:41:24.642Z,6.35
2022-12-24T00:46:22.324Z,10.63
2022-12-24T00:51:19.516Z,10.52
2022-12-24T00:56:15.905Z,8.75
2022-12-24T01:01:12.728Z,12.77
2022-12-24T01:06:11.899Z,14.93
2022-12-24T01:11:09.619Z,7.90
2022-12-24T01:16:15.455Z,9.77
2022-12-24T01:21:12.175Z,11.05
2022-12-24T01:26:12.092Z,13.10
2022-12-24T01:31:13.846Z,13.07
2022-12-24T01:36:11.199Z,13.07
2022-12-24T01:41:34.029Z,13.40
2022-12-24T01:46:32.554Z,20.20
2022-12-24T01:56:37.008Z,26.27
2022-12-24T02:01:34.528Z,34.38
2022-12-24T02:06:30.969Z,30.17
2022-12-24T02:11:27.251Z,19.20
2022-12-24T02:17:01.453Z,23.55
2022-12-24T02:22:04.706Z,27.25
2022-12-24T02:27:17.823Z,28.13
2022-12-24T02:32:27.743Z,25.33
2022-12-24T02:37:33.017Z,30.02
2022-12-24T02:42:37.637Z,26.17
2022-12-24T02:47:35.118Z,22.42
2022-12-24T02:52:39.845Z,31.20
2022-12-24T02:58:10.090Z,26.05
2022-12-24T03:03:21.177Z,29.02
2022-12-24T03:08:43.979Z,27.80
2022-12-24T03:13:41.538Z,29.15
2022-12-24T03:18:42.914Z,21.40
2022-12-24T03:23:39.642Z,33.17
2022-12-24T03:28:38.781Z,28.30
2022-12-24T03:33:35.821Z,19.15
2022-12-24T03:38:32.269Z,33.03
2022-12-24T03:43:28.896Z,32.47
2022-12-24T03:48:32.424Z,23.70
2022-12-24T03:53:29.235Z,27.77
2022-12-24T03:58:25.970Z,27.38
2022-12-24T04:03:22.397Z,21.27
2022-12-24T04:08:18.926Z,28.08
2022-12-24T04:13:15.215Z,25.30
2022-12-24T04:18:11.534Z,27.50
2022-12-24T04:23:07.830Z,19.10
2022-12-24T04:28:04.351Z,25.60
2022-12-24T04:33:00.660Z,28.25
2022-12-24T04:37:57.785Z,32.50
2022-12-24T04:42:54.084Z,24.55
2022-12-24T04:47:50.369Z,19.20
2022-12-24T04:52:46.718Z,28.20
2022-12-24T04:57:43.530Z,26.50
2022-12-24T05:07:38.209Z,19.80
2022-12-24T05:12:34.524Z,26.05
2022-12-24T05:17:30.903Z,32.03
2022-12-24T05:22:45.962Z,24.90
2022-12-24T05:27:47.446Z,25.58
2022-12-24T05:32:47.174Z,22.42
2022-12-24T05:37:43.452Z,37.17
2022-12-24T05:42:39.801Z,31.02
2022-12-24T05:47:42.884Z,29.63
2022-12-24T05:52:39.716Z,27.92
2022-12-24T05:57:36.068Z,26.73
2022-12-24T06:02:32.515Z,29.85
2022-12-24T06:07:28.880Z,33.72
2022-12-24T06:12:25.259Z,40.00
2022-12-24T06:17:21.603Z,32.95
2022-12-24T06:22:18.006Z,29.10
2022-12-24T06:27:14.375Z,39.28
2022-12-24T06:32:10.780Z,34.38
2022-12-24T06:37:07.331Z,39.88
2022-12-24T06:42:03.701Z,28.17
2022-12-24T06:47:00.526Z,40.25
2022-12-24T06:51:56.926Z,32.33
2022-12-24T06:56:53.273Z,29.23
2022-12-24T07:01:49.704Z,32.50
2022-12-24T07:06:46.139Z,34.55
2022-12-24T07:11:42.509Z,24.83
2022-12-24T07:16:38.915Z,37.38
2022-12-24T07:21:35.409Z,37.08
2022-12-24T07:26:31.837Z,44.95
2022-12-24T07:31:28.246Z,32.72
2022-12-24T07:36:24.893Z,37.05
2022-12-24T07:41:21.853Z,40.63
2022-12-24T07:46:18.312Z,36.83
2022-12-24T07:51:14.854Z,34.67
2022-12-24T07:56:13.094Z,35.90
2022-12-24T08:01:12.019Z,39.22
2022-12-24T08:06:08.543Z,43.85
2022-12-24T08:11:06.921Z,29.73
2022-12-24T08:16:03.464Z,31.30
2022-12-24T08:20:59.909Z,42.05
2022-12-24T08:25:56.306Z,44.92
2022-12-24T08:30:52.711Z,46.55
2022-12-24T08:35:50.613Z,47.67
2022-12-24T08:40:49.787Z,42.63
2022-12-24T08:45:49.145Z,41.85
2022-12-24T08:50:45.791Z,40.38
2022-12-24T08:55:42.382Z,40.25
2022-12-24T09:00:38.863Z,39.17
2022-12-24T09:05:40.214Z,35.42
2022-12-24T09:10:36.626Z,34.78
2022-12-24T09:15:33.176Z,25.92
2022-12-24T09:20:29.585Z,27.20
2022-12-24T09:25:25.999Z,25.77
2022-12-24T09:30:22.760Z,34.78
2022-12-24T09:35:19.180Z,24.13
2022-12-24T09:40:28.973Z,25.33
2022-12-24T09:45:32.677Z,30.58
2022-12-24T09:50:37.825Z,27.63
2022-12-24T09:55:44.459Z,35.28
2022-12-24T10:00:47.776Z,23.85
2022-12-24T10:06:02.708Z,31.08
2022-12-24T10:11:18.012Z,23.65
2022-12-24T10:16:29.590Z,24.00
2022-12-24T10:21:55.799Z,25.75
2022-12-24T10:27:05.908Z,29.08
2022-12-24T10:32:08.497Z,20.45
2022-12-24T10:37:05.012Z,26.35
2022-12-24T10:42:01.869Z,31.63
2022-12-24T10:46:59.451Z,31.90
2022-12-24T10:51:59.914Z,18.73
2022-12-24T10:57:00.214Z,29.80
2022-12-24T11:01:59.125Z,20.75
2022-12-24T11:07:05.989Z,20.38
2022-12-24T11:12:16.351Z,22.80
2022-12-24T11:17:22.254Z,18.80
2022-12-24T11:22:25.282Z,17.08
2022-12-24T11:27:41.718Z,23.73
2022-12-24T11:32:38.100Z,23.25
2022-12-24T11:37:34.781Z,18.48
2022-12-24T11:42:36.875Z,21.58
2022-12-24T11:47:38.830Z,17.38
2022-12-24T11:52:35.859Z,17.50
2022-12-24T11:57:46.603Z,22.88
2022-12-24T12:02:47.864Z,34.17
2022-12-24T12:07:50.591Z,22.35
2022-12-24T12:13:00.030Z,26.33
2022-12-24T12:18:15.203Z,22.10
2022-12-24T12:23:15.596Z,26.30
2022-12-24T12:28:20.507Z,19.60
2022-12-24T12:33:30.278Z,31.08
2022-12-24T12:38:31.659Z,25.13
2022-12-24T12:43:52.700Z,23.45
2022-12-24T12:49:04.812Z,21.17
2022-12-24T12:54:32.568Z,23.02
2022-12-24T12:59:51.209Z,28.08
2022-12-24T13:04:56.437Z,14.77
2022-12-24T13:09:59.383Z,22.67
2022-12-24T13:15:14.073Z,29.75
2022-12-24T13:20:23.036Z,21.08
2022-12-24T13:25:37.380Z,20.67
2022-12-24T13:30:39.600Z,17.10
2022-12-24T13:35:38.568Z,19.85
2022-12-24T13:40:35.306Z,25.65
2022-12-24T13:45:31.805Z,22.90
2022-12-24T13:50:39.423Z,23.52
2022-12-24T13:55:35.814Z,24.60
2022-12-24T14:00:43.148Z,28.63
2022-12-24T14:05:47.045Z,27.15
2022-12-24T14:11:14.554Z,19.50
2022-12-24T14:16:30.657Z,23.00
2022-12-24T14:21:32.004Z,28.05
2022-12-24T14:26:32.556Z,22.70
2022-12-24T14:31:28.973Z,22.38
2022-12-24T14:36:25.347Z,24.63
2022-12-24T14:42:00.131Z,21.65
2022-12-24T14:47:02.164Z,21.10
2022-12-24T14:52:37.673Z,26.60
2022-12-24T14:57:33.054Z,24.10
2022-12-24T15:02:47.635Z,21.50
2022-12-24T15:07:56.146Z,21.73
2022-12-24T15:17:50.876Z,26.10
2022-12-24T15:22:51.652Z,22.27
2022-12-24T15:27:48.211Z,28.48
2022-12-24T15:32:44.839Z,25.50
2022-12-24T15:37:42.405Z,27.60
2022-12-24T15:42:42.377Z,21.27
2022-12-24T15:47:48.186Z,21.58
2022-12-24T15:52:45.626Z,31.45
2022-12-24T15:57:41.975Z,26.00
2022-12-24T16:02:45.614Z,27.08
2022-12-24T16:08:05.321Z,25.73
2022-12-24T16:13:01.953Z,26.17
2022-12-24T16:17:58.416Z,19.17
2022-12-24T16:22:55.183Z,23.02
2022-12-24T16:27:52.744Z,23.50
2022-12-24T16:32:50.902Z,28.02
2022-12-24T16:37:47.304Z,22.58
2022-12-24T16:43:02.146Z,23.92
2022-12-24T16:47:59.422Z,19.38
2022-12-24T16:52:55.949Z,29.65
2022-12-24T16:57:52.308Z,24.88
2022-12-24T17:02:49.760Z,26.70
2022-12-24T17:07:46.376Z,20.40
2022-12-24T17:12:43.808Z,26.88
2022-12-24T17:17:40.201Z,29.08
2022-12-24T17:22:37.326Z,17.98
2022-12-24T17:27:33.840Z,26.50
2022-12-24T17:32:30.289Z,28.05
2022-12-24T17:37:26.945Z,21.90
2022-12-24T17:42:23.354Z,24.95
2022-12-24T17:47:19.749Z,16.40
2022-12-24T17:52:16.138Z,27.33
2022-12-24T17:57:12.767Z,23.50
2022-12-24T18:02:11.453Z,24.73
2022-12-24T18:07:08.151Z,26.42
2022-12-24T18:12:05.258Z,23.55
2022-12-24T18:17:01.713Z,25.88
2022-12-24T18:21:58.041Z,26.90
2022-12-24T18:26:55.131Z,29.90
2022-12-24T18:31:51.552Z,28.33
2022-12-24T18:36:54.614Z,33.63
2022-12-24T18:41:51.911Z,21.25
2022-12-24T18:46:48.263Z,23.73
2022-12-24T18:51:44.603Z,28.23
2022-12-24T18:56:40.921Z,22.20
2022-12-24T19:01:37.378Z,26.00
2022-12-24T19:06:33.923Z,23.92
2022-12-24T19:11:32.240Z,18.98
2022-12-24T19:16:30.201Z,19.50
2022-12-24T19:21:27.204Z,27.65
2022-12-24T19:26:23.879Z,16.83
2022-12-24T19:31:23.010Z,24.95
2022-12-24T19:36:22.137Z,21.05
2022-12-24T19:41:21.752Z,22.52
2022-12-24T19:46:21.386Z,23.88
2022-12-24T19:51:18.598Z,22.98
2022-12-24T19:56:17.151Z,21.55
2022-12-24T20:01:16.781Z,20.65
2022-12-24T20:06:15.320Z,19.25
2022-12-24T20:11:14.456Z,19.75
2022-12-24T20:16:20.977Z,19.33
2022-12-24T20:21:17.779Z,23.40
2022-12-24T20:26:16.699Z,17.33
2022-12-24T20:31:18.892Z,14.70
2022-12-24T20:36:17.885Z,19.52
2022-12-24T20:41:16.308Z,14.13
2022-12-24T20:46:12.786Z,14.40
2022-12-24T20:51:21.010Z,13.02
2022-12-24T20:56:20.372Z,18.98
2022-12-24T21:01:24.293Z,26.48
2022-12-24T21:06:22.155Z,17.02
2022-12-24T21:11:38.643Z,16.05
2022-12-24T21:16:36.449Z,18.52
2022-12-24T21:21:33.431Z,18.35
2022-12-24T21:26:29.903Z,20.92
2022-12-24T21:31:27.005Z,15.43
2022-12-24T21:36:24.094Z,20.92
2022-12-24T21:41:25.921Z,20.77
2022-12-24T21:46:25.937Z,28.85
2022-12-24T21:51:23.601Z,25.88
2022-12-24T21:56:21.298Z,27.92
2022-12-24T22:01:18.363Z,17.27
2022-12-24T22:06:35.155Z,22.02
2022-12-24T22:11:54.377Z,29.45
2022-12-24T22:16:51.847Z,22.65
2022-12-24T22:21:48.221Z,25.15
2022-12-24T22:26:45.241Z,24.85
2022-12-24T22:31:41.708Z,23.17
2022-12-24T22:36:38.070Z,28.35
2022-12-24T22:41:34.852Z,28.85
2022-12-24T22:46:31.317Z,16.67
2022-12-24T22:51:27.665Z,20.80
2022-12-24T22:56:24.070Z,25.15
2022-12-24T23:01:31.825Z,27.65
2022-12-24T23:06:28.937Z,18.95
2022-12-24T23:11:25.603Z,12.73
2022-12-24T23:16:22.209Z,12.95
2022-12-24T23:21:19.500Z,21.13
2022-12-24T23:26:18.825Z,22.88
2022-12-24T23:31:16.710Z,17.67
2022-12-24T23:36:13.409Z,28.80
2022-12-24T23:41:11.379Z,13.38
2022-12-24T23:46:07.727Z,19.90
2022-12-24T23:51:19.052Z,19.02
2022-12-24T23:56:15.656Z,12.45
